Jolyn — PJWG — position and weather

sailwx.info

Track history (hours):
 
Tides and Currents Weather Stations Pressure Air Temp Water Temp Dewpoint Dewpoint Depression Visibility Wind Speed Wind Dir Waves Ship Positions

Jolyn

Last reported at 2014-Nov-21 13:29 UTC. Time now 2014-Nov-23 08:48 UTC.
Position N 54°39' E 020°05'.

Length 89 m; draft 3.7 m.

Type: Cargo ship. MMSI: 306813000.

Date/timePositionNaut miles runAvg speedWind from/ knotsBaromVisibWave heightAir tempDewpointWater temp
2014-Nov-21 13:29N 54°39' E 020°05'8 7.5
2014-Nov-21 12:27N 54°39' E 019°51'3 3.7
2014-Nov-21 11:33N 54°41' E 019°46'7 6.8
2014-Nov-21 10:33N 54°44' E 019°36'5 5.5
2014-Nov-21 09:33N 54°46' E 019°27'8 8.2
2014-Nov-21 08:33N 54°50' E 019°15'9 8.6
2014-Nov-21 07:34N 54°54' E 019°01'10 9.7
2014-Nov-21 06:33N 54°57' E 018°45'9 9.0
2014-Nov-21 05:33N 55°01' E 018°31'10 8.7
2014-Nov-21 04:24N 55°05' E 018°15'7 8.3
2014-Nov-21 03:33N 55°07' E 018°03'116 3.1
2014-Nov-19 13:32N 55°36' E 014°45'1010.2
2014-Nov-19 12:33N 55°27' E 014°40'1010.0
2014-Nov-19 11:33N 55°19' E 014°30'1010.1
2014-Nov-19 10:33N 55°11' E 014°17'3210.6
2014-Nov-19 07:30N 55°13' E 013°21'1010.4
2014-Nov-19 06:34N 55°14' E 013°04'1010.3
2014-Nov-19 05:33N 55°16' E 012°46'9 8.9
2014-Nov-19 04:34N 55°24' E 012°40'1111.1
2014-Nov-19 03:34N 55°35' E 012°42'1010.4
2014-Nov-19 02:34N 55°45' E 012°41'1111.0
2014-Nov-19 01:34N 55°56' E 012°38'9 9.1
2014-Nov-19 00:34N 56°05' E 012°35'9 8.9
2014-Nov-18 23:33N 56°10' E 012°21'10 9.6
2014-Nov-18 22:33N 56°11' E 012°04'82 1.9
2014-Nov-17 04:23N 57°20' E 010°43'7 8.2
2014-Nov-17 03:32N 57°27' E 010°43'8 8.1
2014-Nov-17 02:31N 57°35' E 010°44'8 8.1
2014-Nov-17 01:32N 57°43' E 010°44'154 7.7
2014-Nov-16 05:34N 55°50' E 007°31'10 9.6
2014-Nov-16 04:33N 55°41' E 007°25'9 9.3
2014-Nov-16 03:34N 55°33' E 007°19'8 8.3
2014-Nov-16 02:34N 55°26' E 007°11'8 8.4
2014-Nov-16 01:33N 55°18' E 007°04'9 8.7
2014-Nov-16 00:33N 55°11' E 006°56'9 8.7
2014-Nov-15 23:33N 55°03' E 006°48'9 8.5
2014-Nov-15 22:33N 54°56' E 006°39'89 8.1
2014-Nov-15 11:33N 53°48' E 005°01'1110.4
2014-Nov-15 10:29N 53°38' E 004°52'1011.2
2014-Nov-15 09:33N 53°28' E 004°45'2711.8
2014-Nov-15 07:17N 53°05' E 004°26'810.9
2014-Nov-15 06:33N 52°57' E 004°20'1010.3
2014-Nov-15 05:34N 52°48' E 004°13'10 9.8
2014-Nov-15 04:34N 52°39' E 004°06'9 9.0
2014-Nov-15 03:33N 52°31' E 004°14'1010.2
2014-Nov-15 02:33N 52°28' E 004°30'4 3.9
2014-Nov-15 01:31N 52°28' E 004°36'0 0.0
2014-Nov-15 00:31N 52°28' E 004°36'0 0.0
2014-Nov-14 23:31N 52°28' E 004°36'0 0.0
2014-Nov-14 22:31N 52°28' E 004°36'0 0.0
2014-Nov-14 21:31N 52°28' E 004°36'0 0.0
2014-Nov-14 20:31N 52°28' E 004°36'0 0.0
2014-Nov-14 18:33N 52°28' E 004°36'0 0.0
2014-Nov-14 17:33N 52°28' E 004°36'0 0.0
2014-Nov-14 16:33N 52°28' E 004°36'0 0.0
2014-Nov-14 15:33N 52°28' E 004°36'0 0.0
2014-Nov-14 14:33N 52°28' E 004°36'0 0.0
2014-Nov-14 12:33N 52°28' E 004°36'0 0.0
2014-Nov-14 11:33N 52°28' E 004°36'0 0.0
2014-Nov-14 10:33N 52°28' E 004°36'0 0.0
2014-Nov-14 09:33N 52°28' E 004°36'0 0.0
2014-Nov-14 08:33N 52°28' E 004°36'0 0.0
2014-Nov-14 07:33N 52°28' E 004°36'0 0.0
2014-Nov-14 06:33N 52°28' E 004°36'0 0.0
2014-Nov-14 05:33N 52°28' E 004°36'0 0.0
2014-Nov-14 04:33N 52°28' E 004°36'0 0.0
2014-Nov-14 03:33N 52°28' E 004°36'0 0.0
2014-Nov-14 02:33N 52°28' E 004°36'0 0.0
2014-Nov-14 01:33N 52°28' E 004°36'0 0.0
2014-Nov-14 00:33N 52°28' E 004°36'0 0.0
2014-Nov-13 23:33N 52°28' E 004°36'0 0.0
2014-Nov-13 22:33N 52°28' E 004°36'0 0.0
2014-Nov-13 21:33N 52°28' E 004°36'0 0.0
2014-Nov-13 20:33N 52°28' E 004°36'0 0.0
2014-Nov-13 19:33N 52°28' E 004°36'0 0.0
2014-Nov-13 18:33N 52°28' E 004°36'0 0.0
2014-Nov-13 17:33N 52°28' E 004°36'0 0.0
2014-Nov-13 16:33N 52°28' E 004°36'0 0.0
2014-Nov-13 15:33N 52°28' E 004°36'0 0.0
2014-Nov-13 14:33N 52°28' E 004°36'0 0.0
2014-Nov-13 13:33N 52°28' E 004°36'0 0.0
2014-Nov-13 12:33N 52°28' E 004°36'0 0.0
2014-Nov-13 11:33N 52°28' E 004°36'0 0.0
2014-Nov-13 10:33N 52°28' E 004°36'0 0.4
2014-Nov-13 09:34N 52°28' E 004°36'9 8.8
2014-Nov-13 08:33N 52°29' E 004°21'9 8.5
2014-Nov-13 07:33N 52°31' E 004°08'8 8.4
2014-Nov-13 06:33N 52°39' E 004°03'9 8.6
2014-Nov-13 05:33N 52°47' E 003°59'9 8.7
2014-Nov-13 04:33N 52°56' E 003°60'10 9.8
2014-Nov-13 03:33N 53°02' E 004°11'20 9.9
2014-Nov-13 01:30N 53°19' E 004°31'9 9.5
2014-Nov-13 00:33N 53°27' E 004°38'9 8.9
2014-Nov-12 23:33N 53°31' E 004°51'9 8.6
2014-Nov-12 22:33N 53°34' E 005°05'8 8.3
2014-Nov-12 21:33N 53°37' E 005°18'8 8.1
2014-Nov-12 20:33N 53°39' E 005°31'9 9.0
2014-Nov-12 19:33N 53°42' E 005°45'9 8.6
2014-Nov-12 18:33N 53°41' E 005°60'1010.0
2014-Nov-12 17:32N 53°38' E 006°16'1110.7
2014-Nov-12 16:33N 53°37' E 006°34'1313.2
2014-Nov-12 15:33N 53°28' E 006°51'1110.8
2014-Nov-12 14:34N 53°19' E 006°60'2 2.4
2014-Nov-12 13:33N 53°20' E 006°56'0 0.0
2014-Nov-12 12:33N 53°20' E 006°56'0 0.0
2014-Nov-12 11:33N 53°20' E 006°56'0 0.0
2014-Nov-12 10:33N 53°20' E 006°56'0 0.0
2014-Nov-12 09:33N 53°20' E 006°56'0 0.1
2014-Nov-12 08:33N 53°20' E 006°56'0 0.1
2014-Nov-12 07:31N 53°20' E 006°56'0 0.0
2014-Nov-12 06:31N 53°20' E 006°56'0 0.0
2014-Nov-12 05:31N 53°20' E 006°56'0 0.0
2014-Nov-12 04:31N 53°20' E 006°56'0 0.0
2014-Nov-12 03:31N 53°20' E 006°56'0 0.0
2014-Nov-12 02:31N 53°20' E 006°56'0 0.0
2014-Nov-12 01:31N 53°20' E 006°56'0 0.0
2014-Nov-12 00:31N 53°20' E 006°56'0 0.0
2014-Nov-11 23:31N 53°20' E 006°56'0 0.0
2014-Nov-11 22:31N 53°20' E 006°56'0 0.0
2014-Nov-11 21:31N 53°20' E 006°56'0 0.0
2014-Nov-11 20:31N 53°20' E 006°56'0 0.0
2014-Nov-11 19:31N 53°20' E 006°56'0 0.0
2014-Nov-11 18:33N 53°20' E 006°56'3 2.7
2014-Nov-11 17:34N 53°19' E 007°00'7 7.1
2014-Nov-11 16:33N 53°26' E 006°55'2 2.4
2014-Nov-11 15:33N 53°27' E 006°53'9 9.2
2014-Nov-11 14:33N 53°19' E 007°00'3 3.3
2014-Nov-11 13:33N 53°19' E 006°55'  
Track history (hours):
 
Tides and Currents Weather Stations Pressure Air Temp Water Temp Dewpoint Dewpoint Depression Visibility Wind Speed Wind Dir Waves Ship Positions

Jolyn

Last reported at 2014-Nov-21 13:29 UTC. Time now 2014-Nov-23 08:48 UTC.
Position N 54°39' E 020°05'.

Length 89 m; draft 3.7 m.

Type: Cargo ship. MMSI: 306813000.

Date/timePositionNaut miles runAvg speedWind from/ knotsBaromVisibWave heightAir tempDewpointWater temp
2014-Nov-21 13:29N 54°39' E 020°05'8 7.5
2014-Nov-21 12:27N 54°39' E 019°51'3 3.7
2014-Nov-21 11:33N 54°41' E 019°46'7 6.8
2014-Nov-21 10:33N 54°44' E 019°36'5 5.5
2014-Nov-21 09:33N 54°46' E 019°27'8 8.2
2014-Nov-21 08:33N 54°50' E 019°15'9 8.6
2014-Nov-21 07:34N 54°54' E 019°01'10 9.7
2014-Nov-21 06:33N 54°57' E 018°45'9 9.0
2014-Nov-21 05:33N 55°01' E 018°31'10 8.7
2014-Nov-21 04:24N 55°05' E 018°15'7 8.3
2014-Nov-21 03:33N 55°07' E 018°03'116 3.1
2014-Nov-19 13:32N 55°36' E 014°45'1010.2
2014-Nov-19 12:33N 55°27' E 014°40'1010.0
2014-Nov-19 11:33N 55°19' E 014°30'1010.1
2014-Nov-19 10:33N 55°11' E 014°17'3210.6
2014-Nov-19 07:30N 55°13' E 013°21'1010.4
2014-Nov-19 06:34N 55°14' E 013°04'1010.3
2014-Nov-19 05:33N 55°16' E 012°46'9 8.9
2014-Nov-19 04:34N 55°24' E 012°40'1111.1
2014-Nov-19 03:34N 55°35' E 012°42'1010.4
2014-Nov-19 02:34N 55°45' E 012°41'1111.0
2014-Nov-19 01:34N 55°56' E 012°38'9 9.1
2014-Nov-19 00:34N 56°05' E 012°35'9 8.9
2014-Nov-18 23:33N 56°10' E 012°21'10 9.6
2014-Nov-18 22:33N 56°11' E 012°04'82 1.9
2014-Nov-17 04:23N 57°20' E 010°43'7 8.2
2014-Nov-17 03:32N 57°27' E 010°43'8 8.1
2014-Nov-17 02:31N 57°35' E 010°44'8 8.1
2014-Nov-17 01:32N 57°43' E 010°44'154 7.7
2014-Nov-16 05:34N 55°50' E 007°31'10 9.6
2014-Nov-16 04:33N 55°41' E 007°25'9 9.3
2014-Nov-16 03:34N 55°33' E 007°19'8 8.3
2014-Nov-16 02:34N 55°26' E 007°11'8 8.4
2014-Nov-16 01:33N 55°18' E 007°04'9 8.7
2014-Nov-16 00:33N 55°11' E 006°56'9 8.7
2014-Nov-15 23:33N 55°03' E 006°48'9 8.5
2014-Nov-15 22:33N 54°56' E 006°39'89 8.1
2014-Nov-15 11:33N 53°48' E 005°01'1110.4
2014-Nov-15 10:29N 53°38' E 004°52'1011.2
2014-Nov-15 09:33N 53°28' E 004°45'2711.8
2014-Nov-15 07:17N 53°05' E 004°26'810.9
2014-Nov-15 06:33N 52°57' E 004°20'1010.3
2014-Nov-15 05:34N 52°48' E 004°13'10 9.8
2014-Nov-15 04:34N 52°39' E 004°06'9 9.0
2014-Nov-15 03:33N 52°31' E 004°14'1010.2
2014-Nov-15 02:33N 52°28' E 004°30'4 3.9
2014-Nov-15 01:31N 52°28' E 004°36'0 0.0
2014-Nov-15 00:31N 52°28' E 004°36'0 0.0
2014-Nov-14 23:31N 52°28' E 004°36'0 0.0
2014-Nov-14 22:31N 52°28' E 004°36'0 0.0
2014-Nov-14 21:31N 52°28' E 004°36'0 0.0
2014-Nov-14 20:31N 52°28' E 004°36'0 0.0
2014-Nov-14 18:33N 52°28' E 004°36'0 0.0
2014-Nov-14 17:33N 52°28' E 004°36'0 0.0
2014-Nov-14 16:33N 52°28' E 004°36'0 0.0
2014-Nov-14 15:33N 52°28' E 004°36'0 0.0
2014-Nov-14 14:33N 52°28' E 004°36'0 0.0
2014-Nov-14 12:33N 52°28' E 004°36'0 0.0
2014-Nov-14 11:33N 52°28' E 004°36'0 0.0
2014-Nov-14 10:33N 52°28' E 004°36'0 0.0
2014-Nov-14 09:33N 52°28' E 004°36'0 0.0
2014-Nov-14 08:33N 52°28' E 004°36'0 0.0
2014-Nov-14 07:33N 52°28' E 004°36'0 0.0
2014-Nov-14 06:33N 52°28' E 004°36'0 0.0
2014-Nov-14 05:33N 52°28' E 004°36'0 0.0
2014-Nov-14 04:33N 52°28' E 004°36'0 0.0
2014-Nov-14 03:33N 52°28' E 004°36'0 0.0
2014-Nov-14 02:33N 52°28' E 004°36'0 0.0
2014-Nov-14 01:33N 52°28' E 004°36'0 0.0
2014-Nov-14 00:33N 52°28' E 004°36'0 0.0
2014-Nov-13 23:33N 52°28' E 004°36'0 0.0
2014-Nov-13 22:33N 52°28' E 004°36'0 0.0
2014-Nov-13 21:33N 52°28' E 004°36'0 0.0
2014-Nov-13 20:33N 52°28' E 004°36'0 0.0
2014-Nov-13 19:33N 52°28' E 004°36'0 0.0
2014-Nov-13 18:33N 52°28' E 004°36'0 0.0
2014-Nov-13 17:33N 52°28' E 004°36'0 0.0
2014-Nov-13 16:33N 52°28' E 004°36'0 0.0
2014-Nov-13 15:33N 52°28' E 004°36'0 0.0
2014-Nov-13 14:33N 52°28' E 004°36'0 0.0
2014-Nov-13 13:33N 52°28' E 004°36'0 0.0
2014-Nov-13 12:33N 52°28' E 004°36'0 0.0
2014-Nov-13 11:33N 52°28' E 004°36'0 0.0
2014-Nov-13 10:33N 52°28' E 004°36'0 0.4
2014-Nov-13 09:34N 52°28' E 004°36'9 8.8
2014-Nov-13 08:33N 52°29' E 004°21'9 8.5
2014-Nov-13 07:33N 52°31' E 004°08'8 8.4
2014-Nov-13 06:33N 52°39' E 004°03'9 8.6
2014-Nov-13 05:33N 52°47' E 003°59'9 8.7
2014-Nov-13 04:33N 52°56' E 003°60'10 9.8
2014-Nov-13 03:33N 53°02' E 004°11'20 9.9
2014-Nov-13 01:30N 53°19' E 004°31'9 9.5
2014-Nov-13 00:33N 53°27' E 004°38'9 8.9
2014-Nov-12 23:33N 53°31' E 004°51'9 8.6
2014-Nov-12 22:33N 53°34' E 005°05'8 8.3
2014-Nov-12 21:33N 53°37' E 005°18'8 8.1
2014-Nov-12 20:33N 53°39' E 005°31'9 9.0
2014-Nov-12 19:33N 53°42' E 005°45'9 8.6
2014-Nov-12 18:33N 53°41' E 005°60'1010.0
2014-Nov-12 17:32N 53°38' E 006°16'1110.7
2014-Nov-12 16:33N 53°37' E 006°34'1313.2
2014-Nov-12 15:33N 53°28' E 006°51'1110.8
2014-Nov-12 14:34N 53°19' E 006°60'2 2.4
2014-Nov-12 13:33N 53°20' E 006°56'0 0.0
2014-Nov-12 12:33N 53°20' E 006°56'0 0.0
2014-Nov-12 11:33N 53°20' E 006°56'0 0.0
2014-Nov-12 10:33N 53°20' E 006°56'0 0.0
2014-Nov-12 09:33N 53°20' E 006°56'0 0.1
2014-Nov-12 08:33N 53°20' E 006°56'0 0.1
2014-Nov-12 07:31N 53°20' E 006°56'0 0.0
2014-Nov-12 06:31N 53°20' E 006°56'0 0.0
2014-Nov-12 05:31N 53°20' E 006°56'0 0.0
2014-Nov-12 04:31N 53°20' E 006°56'0 0.0
2014-Nov-12 03:31N 53°20' E 006°56'0 0.0
2014-Nov-12 02:31N 53°20' E 006°56'0 0.0
2014-Nov-12 01:31N 53°20' E 006°56'0 0.0
2014-Nov-12 00:31N 53°20' E 006°56'0 0.0
2014-Nov-11 23:31N 53°20' E 006°56'0 0.0
2014-Nov-11 22:31N 53°20' E 006°56'0 0.0
2014-Nov-11 21:31N 53°20' E 006°56'0 0.0
2014-Nov-11 20:31N 53°20' E 006°56'0 0.0
2014-Nov-11 19:31N 53°20' E 006°56'0 0.0
2014-Nov-11 18:33N 53°20' E 006°56'3 2.7
2014-Nov-11 17:34N 53°19' E 007°00'7 7.1
2014-Nov-11 16:33N 53°26' E 006°55'2 2.4
2014-Nov-11 15:33N 53°27' E 006°53'9 9.2
2014-Nov-11 14:33N 53°19' E 007°00'3 3.3
2014-Nov-11 13:33N 53°19' E 006°55'  

Dump ship's entire track history